Knoxville, Iowa
Current Conditions -  °F | °C
As of 2:55 PM on Sunday 21 Dec 2014 (Local Time) from KOXV Reporting Station
Haze Haze  
Wind Chill: 33°   Ceiling: 1100
Heat Index: 41°   Visibility: 5mi
Dew Point: 39°   Wind: 15mph
Humidity: 93%   Direction: 190°S
Pressure: 29.84"   Gusts: NA
Location:  41.32°N, 93.1°W
Report Text: KOXV 212055Z AUTO 19013KT 5SM BR OVC011 05/04 A2984 RMK AO2
Loading
Personal Weather Stations






























Interactive Weather Map New forecast layout! Learn more

10-Day Weather Forecast

Advertisements
Track Severe Weather on mobile